createdAt,value
2022-10-31T00:02:01.045Z,11.40
2022-10-31T00:04:46.290Z,11.40
2022-10-31T00:07:32.073Z,11.40
2022-10-31T00:10:18.024Z,11.40
2022-10-31T00:13:03.345Z,11.30
2022-10-31T00:15:48.946Z,11.40
2022-10-31T00:18:34.156Z,11.50
2022-10-31T00:21:20.823Z,11.40
2022-10-31T00:24:06.554Z,11.50
2022-10-31T00:26:52.331Z,11.40
2022-10-31T00:29:37.774Z,11.40
2022-10-31T00:32:23.360Z,11.30
2022-10-31T00:35:09.369Z,11.30
2022-10-31T00:37:54.775Z,11.30
2022-10-31T00:40:40.199Z,11.20
2022-10-31T00:43:26.016Z,11.10
2022-10-31T00:46:12.611Z,11.10
2022-10-31T00:48:58.177Z,11.10
2022-10-31T00:51:43.798Z,11.00
2022-10-31T00:54:29.419Z,11.00
2022-10-31T00:57:14.667Z,10.90
2022-10-31T01:00:00.342Z,10.90
2022-10-31T01:02:45.815Z,10.90
2022-10-31T01:05:31.241Z,10.90
2022-10-31T01:08:16.887Z,10.80
2022-10-31T01:11:12.606Z,10.80
2022-10-31T01:13:57.989Z,10.80
2022-10-31T01:16:43.514Z,10.80
2022-10-31T01:19:29.022Z,10.80
2022-10-31T01:22:14.442Z,10.70
2022-10-31T01:24:59.794Z,10.70
2022-10-31T01:27:45.548Z,10.70
2022-10-31T01:30:31.240Z,10.60
2022-10-31T01:33:16.487Z,10.60
2022-10-31T01:36:02.466Z,10.70
2022-10-31T01:38:48.547Z,10.60
2022-10-31T01:41:38.785Z,10.60
2022-10-31T01:44:23.848Z,10.70
2022-10-31T01:47:18.565Z,10.70
2022-10-31T01:50:10.804Z,10.70
2022-10-31T01:52:56.628Z,10.70
2022-10-31T01:55:45.140Z,10.70
2022-10-31T01:58:32.148Z,10.70
2022-10-31T02:01:19.187Z,10.60
2022-10-31T02:04:06.007Z,10.70
2022-10-31T02:06:57.386Z,10.70
2022-10-31T02:09:44.420Z,10.70
2022-10-31T02:12:32.644Z,10.70
2022-10-31T02:15:18.320Z,10.60
2022-10-31T02:18:04.755Z,10.60
2022-10-31T02:21:08.705Z,10.50
2022-10-31T02:24:20.556Z,10.50
2022-10-31T02:27:43.823Z,10.50
2022-10-31T02:30:43.351Z,10.40
2022-10-31T02:33:51.959Z,10.50
2022-10-31T02:36:56.762Z,10.50
2022-10-31T02:39:48.858Z,10.50
2022-10-31T02:42:48.022Z,10.50
2022-10-31T02:45:40.153Z,10.40
2022-10-31T02:48:29.664Z,10.30
2022-10-31T02:51:16.763Z,10.30
2022-10-31T02:54:02.168Z,10.20
2022-10-31T02:56:49.226Z,10.20
2022-10-31T02:59:37.090Z,10.00
2022-10-31T03:02:40.472Z,10.00
2022-10-31T03:05:50.771Z,10.00
2022-10-31T03:08:47.609Z,10.00
2022-10-31T03:11:45.425Z,10.00
2022-10-31T03:14:45.236Z,10.00
2022-10-31T03:17:38.408Z,10.00
2022-10-31T03:20:31.042Z,10.00
2022-10-31T03:23:18.834Z,10.00
2022-10-31T03:26:08.389Z,9.90
2022-10-31T03:29:09.961Z,9.80
2022-10-31T03:32:00.134Z,9.80
2022-10-31T03:34:47.008Z,9.80
2022-10-31T03:37:34.013Z,9.70
2022-10-31T03:40:22.741Z,9.70
2022-10-31T03:43:14.841Z,9.70
2022-10-31T03:46:00.725Z,9.70
2022-10-31T03:48:46.793Z,9.70
2022-10-31T03:51:49.952Z,9.60
2022-10-31T03:54:35.354Z,9.60
2022-10-31T03:57:48.594Z,9.50
2022-10-31T04:00:36.015Z,9.60
2022-10-31T04:03:34.588Z,9.50
2022-10-31T04:06:23.232Z,9.50
2022-10-31T04:09:10.400Z,9.40
2022-10-31T04:11:59.204Z,9.40
2022-10-31T04:14:48.778Z,9.40
2022-10-31T04:17:40.058Z,9.30
2022-10-31T04:20:42.906Z,9.30
2022-10-31T04:23:29.344Z,9.40
2022-10-31T04:26:15.110Z,9.40
2022-10-31T04:29:00.686Z,9.30
2022-10-31T04:31:46.632Z,9.30
2022-10-31T04:34:32.064Z,9.30
2022-10-31T04:37:17.468Z,9.40
2022-10-31T04:40:04.221Z,9.50
2022-10-31T04:42:50.138Z,9.50
2022-10-31T04:45:35.524Z,9.50
2022-10-31T04:48:21.063Z,9.50
2022-10-31T04:51:06.903Z,9.50
2022-10-31T04:53:52.582Z,9.50
2022-10-31T04:56:38.270Z,9.50
2022-10-31T04:59:23.757Z,9.30
2022-10-31T05:02:09.673Z,9.20
2022-10-31T05:04:55.444Z,9.20
2022-10-31T05:07:46.034Z,9.10
2022-10-31T05:10:32.695Z,9.10
2022-10-31T05:13:18.363Z,9.10
2022-10-31T05:16:04.308Z,9.10
2022-10-31T05:18:49.822Z,9.00
2022-10-31T05:21:35.574Z,8.90
2022-10-31T05:24:22.787Z,8.90
2022-10-31T05:27:08.201Z,8.90
2022-10-31T05:29:53.863Z,8.90
2022-10-31T05:32:45.064Z,8.90
2022-10-31T05:35:32.767Z,8.90
2022-10-31T05:38:18.267Z,8.90
2022-10-31T05:41:03.789Z,8.80
2022-10-31T05:43:49.438Z,8.70
2022-10-31T05:49:20.379Z,8.70
2022-10-31T05:52:05.707Z,8.70
2022-10-31T05:54:51.614Z,8.60
2022-10-31T05:57:37.228Z,8.60
2022-10-31T06:00:23.885Z,8.60
2022-10-31T06:03:10.627Z,8.60
2022-10-31T06:05:56.156Z,8.60
2022-10-31T06:08:42.313Z,8.70
2022-10-31T06:11:27.661Z,8.70
2022-10-31T06:14:13.059Z,8.70
2022-10-31T06:16:59.951Z,8.70
2022-10-31T06:19:46.190Z,8.80
2022-10-31T06:22:31.802Z,8.80
2022-10-31T06:25:17.600Z,8.80
2022-10-31T06:28:03.162Z,8.70
2022-10-31T06:30:48.675Z,8.80
2022-10-31T06:33:35.051Z,8.80
2022-10-31T06:36:20.422Z,8.70
2022-10-31T06:39:05.836Z,8.70
2022-10-31T06:41:51.182Z,8.70
2022-10-31T06:44:36.722Z,8.70
2022-10-31T06:47:24.505Z,8.80
2022-10-31T06:50:10.999Z,8.80
2022-10-31T06:52:58.843Z,8.80
2022-10-31T06:55:44.694Z,8.80
2022-10-31T06:58:30.396Z,8.90
2022-10-31T07:01:15.965Z,9.00
2022-10-31T07:04:02.222Z,9.00
2022-10-31T07:06:51.727Z,9.00
2022-10-31T07:09:37.611Z,9.10
2022-10-31T07:12:23.265Z,9.20
2022-10-31T07:15:08.754Z,9.20
2022-10-31T07:18:02.363Z,9.30
2022-10-31T07:20:48.700Z,9.40
2022-10-31T07:23:34.304Z,9.40
2022-10-31T07:26:19.726Z,9.50
2022-10-31T07:29:05.377Z,9.60
2022-10-31T07:31:50.830Z,9.70
2022-10-31T07:34:36.093Z,9.70
2022-10-31T07:37:21.639Z,9.90
2022-10-31T07:40:08.823Z,10.00
2022-10-31T07:42:54.866Z,10.00
2022-10-31T07:45:40.384Z,10.10
2022-10-31T07:48:25.943Z,10.10
2022-10-31T07:51:11.529Z,10.20
2022-10-31T07:53:57.250Z,10.30
2022-10-31T07:56:42.898Z,10.30
2022-10-31T07:59:28.395Z,10.40
2022-10-31T08:02:13.819Z,10.50
2022-10-31T08:05:01.470Z,10.70
2022-10-31T08:07:47.205Z,10.70
2022-10-31T08:10:33.358Z,10.80
2022-10-31T08:13:19.125Z,11.00
2022-10-31T08:16:05.524Z,11.10
2022-10-31T08:18:51.056Z,11.20
2022-10-31T08:21:36.686Z,11.40
2022-10-31T08:24:23.104Z,11.60
2022-10-31T08:27:08.445Z,11.80
2022-10-31T08:29:53.615Z,11.90
2022-10-31T08:32:39.152Z,12.00
2022-10-31T08:35:24.397Z,12.10
2022-10-31T08:38:12.176Z,12.10
2022-10-31T08:40:57.543Z,12.20
2022-10-31T08:43:43.202Z,12.30
2022-10-31T08:46:28.987Z,12.50
2022-10-31T08:49:14.665Z,12.60
2022-10-31T08:52:00.168Z,12.70
2022-10-31T08:54:45.560Z,12.80
2022-10-31T08:57:31.238Z,12.90
2022-10-31T09:00:17.074Z,12.90
2022-10-31T09:03:11.958Z,13.00
2022-10-31T09:06:00.564Z,13.10
2022-10-31T09:08:46.325Z,13.10
2022-10-31T09:11:32.399Z,13.20
2022-10-31T09:14:18.147Z,13.50
2022-10-31T09:17:03.713Z,13.60
2022-10-31T09:19:49.057Z,13.70
2022-10-31T09:22:34.601Z,13.90
2022-10-31T09:25:20.401Z,14.00
2022-10-31T09:28:07.587Z,14.10
2022-10-31T09:30:54.786Z,14.20
2022-10-31T09:33:39.903Z,14.40
2022-10-31T09:36:25.526Z,14.60
2022-10-31T09:39:11.198Z,14.70
2022-10-31T09:42:18.115Z,14.90
2022-10-31T09:45:22.219Z,15.10
2022-10-31T09:48:31.147Z,15.20
2022-10-31T09:52:00.975Z,15.20
2022-10-31T09:54:52.700Z,15.40
2022-10-31T09:57:39.670Z,15.50
2022-10-31T10:00:25.431Z,15.70
2022-10-31T10:03:25.658Z,16.00
2022-10-31T10:06:22.720Z,16.10
2022-10-31T10:09:10.777Z,16.30
2022-10-31T10:12:17.144Z,16.40
2022-10-31T10:15:40.306Z,16.50
2022-10-31T10:18:33.046Z,16.50
2022-10-31T10:21:18.404Z,16.60
2022-10-31T10:24:12.419Z,16.70
2022-10-31T10:27:20.665Z,16.80
2022-10-31T10:30:19.125Z,17.00
2022-10-31T10:33:10.612Z,17.10
2022-10-31T10:36:06.629Z,17.10
2022-10-31T10:39:00.741Z,17.20
2022-10-31T10:42:08.093Z,17.30
2022-10-31T10:45:11.893Z,17.40
2022-10-31T10:48:16.815Z,17.40
2022-10-31T10:51:03.950Z,17.60
2022-10-31T10:54:14.985Z,17.80
2022-10-31T10:57:12.712Z,18.10
2022-10-31T11:00:02.697Z,18.40
2022-10-31T11:02:49.251Z,18.70
2022-10-31T11:05:40.270Z,18.90
2022-10-31T11:08:27.758Z,19.00
2022-10-31T11:11:26.857Z,19.10
2022-10-31T11:14:17.743Z,19.20
2022-10-31T11:17:28.466Z,19.30
2022-10-31T11:20:17.849Z,19.50
2022-10-31T11:23:19.788Z,19.70
2022-10-31T11:26:07.166Z,19.90
2022-10-31T11:28:59.937Z,19.80
2022-10-31T11:31:47.425Z,19.90
2022-10-31T11:34:46.967Z,20.00
2022-10-31T11:37:36.504Z,20.10
2022-10-31T11:40:28.282Z,20.20
2022-10-31T11:43:18.600Z,20.30
2022-10-31T11:46:19.408Z,20.40
2022-10-31T11:49:06.488Z,20.40
2022-10-31T11:51:56.624Z,20.50
2022-10-31T11:55:01.864Z,20.60
2022-10-31T11:57:49.984Z,20.70
2022-10-31T12:00:39.369Z,20.70
2022-10-31T12:03:25.000Z,20.70
2022-10-31T12:06:24.711Z,20.70
2022-10-31T12:09:17.996Z,20.70
2022-10-31T12:12:31.248Z,20.60
2022-10-31T12:15:26.308Z,20.60
2022-10-31T12:18:32.936Z,20.40
2022-10-31T12:21:41.102Z,20.30
2022-10-31T12:24:48.207Z,20.20
2022-10-31T12:27:45.530Z,20.10
2022-10-31T12:31:03.170Z,20.00
2022-10-31T12:34:35.796Z,19.90
2022-10-31T12:37:43.904Z,19.70
2022-10-31T12:40:35.180Z,19.60
2022-10-31T12:43:57.766Z,19.60
2022-10-31T12:47:01.780Z,19.60
2022-10-31T12:50:11.419Z,19.60
2022-10-31T12:53:29.834Z,19.60
2022-10-31T12:56:30.497Z,19.60
2022-10-31T12:59:45.015Z,19.50
2022-10-31T13:02:42.634Z,19.50
2022-10-31T13:05:41.835Z,19.50
2022-10-31T13:08:39.205Z,19.60
2022-10-31T13:11:43.590Z,19.60
2022-10-31T13:14:36.592Z,19.60
2022-10-31T13:17:28.721Z,19.60
2022-10-31T13:20:29.326Z,19.80
2022-10-31T13:26:43.278Z,20.00
2022-10-31T13:29:37.062Z,20.00
2022-10-31T13:32:22.593Z,20.00
2022-10-31T13:35:34.071Z,20.00
2022-10-31T13:38:32.215Z,20.10
2022-10-31T13:41:54.089Z,20.20
2022-10-31T13:44:39.569Z,20.40
2022-10-31T13:47:28.572Z,20.30
2022-10-31T13:50:32.231Z,20.30
2022-10-31T13:53:23.036Z,20.30
2022-10-31T13:56:28.635Z,20.10
2022-10-31T13:59:20.632Z,20.00
2022-10-31T14:02:18.866Z,20.20
2022-10-31T14:05:07.783Z,20.30
2022-10-31T14:07:57.461Z,20.40
2022-10-31T14:10:52.618Z,20.60
2022-10-31T14:13:47.282Z,20.80
2022-10-31T14:16:33.332Z,20.90
2022-10-31T14:19:20.856Z,20.90
2022-10-31T14:22:24.283Z,20.80
2022-10-31T14:25:33.526Z,20.70
2022-10-31T14:28:33.868Z,20.60
2022-10-31T14:31:33.153Z,20.50
2022-10-31T14:34:24.164Z,20.40
2022-10-31T14:37:28.245Z,20.30
2022-10-31T14:41:05.874Z,20.20
2022-10-31T14:44:28.583Z,20.10
2022-10-31T14:47:44.804Z,20.20
2022-10-31T14:50:42.098Z,20.30
2022-10-31T14:53:29.383Z,20.60
2022-10-31T14:56:29.501Z,20.70
2022-10-31T14:59:20.888Z,20.80
2022-10-31T15:02:16.000Z,20.90
2022-10-31T15:05:02.396Z,20.80
2022-10-31T15:07:56.972Z,20.60
2022-10-31T15:10:46.949Z,20.50
2022-10-31T15:13:32.318Z,20.30
2022-10-31T15:16:22.592Z,20.10
2022-10-31T15:19:13.093Z,20.00
2022-10-31T15:21:59.380Z,19.70
2022-10-31T15:24:45.974Z,19.50
2022-10-31T15:27:33.050Z,19.40
2022-10-31T15:30:27.238Z,19.20
2022-10-31T15:33:37.517Z,19.00
2022-10-31T15:36:29.134Z,18.90
2022-10-31T15:39:21.682Z,18.70
2022-10-31T15:42:30.028Z,18.60
2022-10-31T15:45:15.588Z,18.50
2022-10-31T15:48:14.729Z,18.30
2022-10-31T15:51:00.228Z,18.40
2022-10-31T15:53:52.514Z,18.20
2022-10-31T15:56:37.917Z,18.20
2022-10-31T15:59:28.260Z,18.00
2022-10-31T16:02:15.869Z,17.80
2022-10-31T16:05:02.656Z,17.70
2022-10-31T16:07:52.956Z,17.60
2022-10-31T16:10:38.438Z,17.40
2022-10-31T16:13:36.780Z,17.40
2022-10-31T16:16:38.415Z,17.20
2022-10-31T16:19:28.510Z,17.20
2022-10-31T16:22:20.864Z,17.10
2022-10-31T16:25:16.752Z,17.00
2022-10-31T16:30:59.983Z,16.90
2022-10-31T16:33:45.311Z,16.70
2022-10-31T16:36:35.612Z,16.50
2022-10-31T16:39:21.882Z,16.40
2022-10-31T16:42:11.400Z,16.40
2022-10-31T16:44:56.695Z,16.20
2022-10-31T16:47:42.490Z,16.10
2022-10-31T16:50:28.505Z,16.00
2022-10-31T16:53:16.831Z,15.80
2022-10-31T16:56:04.788Z,15.70
2022-10-31T16:58:50.765Z,15.70
2022-10-31T17:01:36.481Z,15.90
2022-10-31T17:04:22.297Z,15.70
2022-10-31T17:07:08.270Z,15.50
2022-10-31T17:09:53.840Z,15.40
2022-10-31T17:12:41.625Z,15.30
2022-10-31T17:15:28.768Z,15.20
2022-10-31T17:18:15.621Z,15.10
2022-10-31T17:21:06.155Z,15.00
2022-10-31T17:23:51.769Z,15.10
2022-10-31T17:26:36.996Z,15.10
2022-10-31T17:29:22.869Z,14.90
2022-10-31T17:32:08.138Z,14.80
2022-10-31T17:34:53.777Z,14.70
2022-10-31T17:37:42.869Z,14.60
2022-10-31T17:40:28.361Z,14.70
2022-10-31T17:43:14.026Z,14.50
2022-10-31T17:46:01.171Z,14.40
2022-10-31T17:48:46.732Z,14.40
2022-10-31T17:51:32.262Z,14.30
2022-10-31T17:54:18.903Z,14.50
2022-10-31T17:57:04.037Z,14.40
2022-10-31T17:59:50.065Z,14.40
2022-10-31T18:02:37.107Z,14.30
2022-10-31T18:05:22.809Z,14.20
2022-10-31T18:08:08.461Z,14.20
2022-10-31T18:10:55.001Z,14.10
2022-10-31T18:13:40.908Z,13.90
2022-10-31T18:16:26.621Z,13.80
2022-10-31T18:19:18.742Z,13.70
2022-10-31T18:22:04.057Z,13.60
2022-10-31T18:24:49.698Z,13.50
2022-10-31T18:27:35.248Z,13.60
2022-10-31T18:30:20.741Z,13.70
2022-10-31T18:33:06.667Z,13.60
2022-10-31T18:35:52.285Z,13.50
2022-10-31T18:38:42.779Z,13.50
2022-10-31T18:41:28.894Z,13.50
2022-10-31T18:44:14.258Z,13.40
2022-10-31T18:46:59.932Z,13.40
2022-10-31T18:49:45.455Z,13.30
2022-10-31T18:52:31.654Z,13.40
2022-10-31T18:55:17.716Z,13.30
2022-10-31T18:58:03.285Z,13.20
2022-10-31T19:00:48.769Z,13.20
2022-10-31T19:03:34.754Z,13.30
2022-10-31T19:06:20.478Z,13.30
2022-10-31T19:09:09.528Z,13.20
2022-10-31T19:11:54.879Z,13.10
2022-10-31T19:14:40.554Z,13.10
2022-10-31T19:17:26.157Z,13.00
2022-10-31T19:20:12.253Z,13.00
2022-10-31T19:22:57.893Z,12.90
2022-10-31T19:28:32.213Z,12.80
2022-10-31T19:31:18.971Z,12.80
2022-10-31T19:34:04.787Z,12.70
2022-10-31T19:36:50.251Z,12.80
2022-10-31T19:39:38.679Z,12.80
2022-10-31T19:42:29.230Z,12.80
2022-10-31T19:45:14.856Z,12.80
2022-10-31T19:48:00.900Z,12.80
2022-10-31T19:50:46.283Z,12.80
2022-10-31T19:53:32.553Z,12.90
2022-10-31T19:56:20.352Z,12.90
2022-10-31T19:59:05.859Z,12.80
2022-10-31T20:01:51.800Z,12.70
2022-10-31T20:04:37.229Z,12.70
2022-10-31T20:07:23.112Z,12.60
2022-10-31T20:10:08.882Z,12.50
2022-10-31T20:12:54.592Z,12.50
2022-10-31T20:15:40.073Z,12.50
2022-10-31T20:18:25.862Z,12.50
2022-10-31T20:21:14.406Z,12.60
2022-10-31T20:24:04.073Z,12.60
2022-10-31T20:26:49.753Z,12.70
2022-10-31T20:29:35.182Z,12.80
2022-10-31T20:32:21.374Z,12.80
2022-10-31T20:35:07.461Z,12.90
2022-10-31T20:37:52.979Z,12.90
2022-10-31T20:40:38.396Z,12.90
2022-10-31T20:43:24.017Z,13.00
2022-10-31T20:46:22.388Z,13.10
2022-10-31T20:49:08.205Z,13.10
2022-10-31T20:51:53.623Z,13.10
2022-10-31T20:54:39.107Z,13.00
2022-10-31T20:57:24.641Z,12.90
2022-10-31T21:00:13.965Z,13.10
2022-10-31T21:02:59.620Z,13.10
2022-10-31T21:05:59.393Z,13.30
2022-10-31T21:08:45.110Z,13.40
2022-10-31T21:11:31.935Z,13.40
2022-10-31T21:14:17.815Z,13.30
2022-10-31T21:17:04.031Z,13.20
2022-10-31T21:19:49.750Z,13.10
2022-10-31T21:22:35.494Z,13.00
2022-10-31T21:25:21.682Z,12.90
2022-10-31T21:28:08.329Z,12.90
2022-10-31T21:30:53.693Z,12.90
2022-10-31T21:33:40.150Z,12.80
2022-10-31T21:36:26.339Z,12.80
2022-10-31T21:39:11.894Z,12.80
2022-10-31T21:41:57.170Z,12.80
2022-10-31T21:44:42.650Z,12.80
2022-10-31T21:47:28.074Z,12.70
2022-10-31T21:50:14.146Z,12.70
2022-10-31T21:53:19.386Z,12.60
2022-10-31T21:56:05.171Z,12.60
2022-10-31T21:58:51.575Z,12.60
2022-10-31T22:01:37.740Z,12.70
2022-10-31T22:04:23.775Z,12.70
2022-10-31T22:07:09.110Z,12.70
2022-10-31T22:09:54.461Z,12.70
2022-10-31T22:12:40.023Z,12.80
2022-10-31T22:15:25.516Z,12.90
2022-10-31T22:18:11.055Z,12.90
2022-10-31T22:21:13.575Z,12.80
2022-10-31T22:24:03.275Z,12.80
2022-10-31T22:26:50.613Z,12.90
2022-10-31T22:29:37.593Z,12.80
2022-10-31T22:32:23.622Z,12.80
2022-10-31T22:35:09.271Z,12.80
2022-10-31T22:37:54.814Z,12.80
2022-10-31T22:40:40.304Z,12.70
2022-10-31T22:43:25.719Z,12.70
2022-10-31T22:46:13.939Z,12.70
2022-10-31T22:49:02.398Z,12.60
2022-10-31T22:51:51.226Z,12.60
2022-10-31T22:54:36.860Z,12.60
2022-10-31T22:57:22.371Z,12.50
2022-10-31T23:00:08.833Z,12.40
2022-10-31T23:02:54.210Z,12.40
2022-10-31T23:05:39.807Z,12.30
2022-10-31T23:08:26.622Z,12.40
2022-10-31T23:11:21.624Z,12.30
2022-10-31T23:14:10.784Z,12.30
2022-10-31T23:16:57.073Z,12.20
2022-10-31T23:19:42.853Z,12.20
2022-10-31T23:22:28.755Z,12.20
2022-10-31T23:25:32.966Z,12.10
2022-10-31T23:28:18.258Z,12.10
2022-10-31T23:31:04.277Z,12.10
2022-10-31T23:33:49.865Z,12.20
2022-10-31T23:36:35.141Z,12.10
2022-10-31T23:39:24.147Z,12.10
2022-10-31T23:42:11.065Z,12.10
2022-10-31T23:44:56.850Z,12.10
2022-10-31T23:47:43.404Z,12.10
2022-10-31T23:50:28.855Z,12.00
2022-10-31T23:53:14.508Z,12.00
2022-10-31T23:56:00.209Z,11.90
2022-10-31T23:58:45.827Z,12.00
